BLUO2: Blue River, Blue, OK

Data processed at Mon Jan 21 2019 23:32


All information presented herein is the property of the government of the United States of America and may be revised or deleted at any time without prior notice.
Dissemination of this information without the expressed written consent of the Public Affairs Office, Tulsa District U.S. Army Corps of Engineers is strictly prohibited.
These data are gathered electronically and, as presented, have not undergone any form of quality control. These data are not guaranteed to be valid or correct.
Go to home page.
Go to station list.
Go to home page.

Downstream station:


Previous Day
Next Day
Current Day
    
SHEF ID:       BLUO2     Blue River near Blue, OK
STATION TYPE:  

               PRECIP     STAGE  RIV-FLOW  BAT-LOAD
                   in        ft       cfs      volt
              Ccp-Rev   Ccp-Rev   Ccp-Rev   Ccp-Rev
(US/Central)
01/21 00:00      0.00      8.90       465     12.57
01/21 01:00      0.00      8.90       465     12.57
01/21 02:00      0.00      8.89       463     12.57
01/21 03:00      0.00      8.86       458     12.57
01/21 04:00      0.00      8.86       458     12.57
01/21 05:00      0.00      8.86       458     12.57
01/21 06:00      0.00      8.84       455     12.49
01/21 07:00      0.00      8.83       453     12.57
01/21 08:00      0.00      8.79       446     12.41
01/21 09:00      0.00      8.79       446     12.57
01/21 10:00      0.00      8.77       442     12.89
01/21 11:00      0.00      8.73       435     13.05
01/21 12:00      0.00      8.71       432     13.29
01/21 13:00      0.00      8.71       432     13.21
01/21 14:00      0.00      8.68       427     12.89
01/21 15:00      0.00      8.69       428     13.13
01/21 16:00      0.00      8.68       427     13.21
01/21 17:00      0.00      8.64       420     13.05
01/21 18:00      0.00      8.61       415     12.89
01/21 19:00      0.00      8.61       415     12.81
01/21 20:00      0.00      8.60       413     12.73
01/21 21:00      0.00      8.60       413     12.73
01/21 22:00      0.00      8.58       410     12.65
01/21 23:00      ----      ----      ----      ----